Time;durP1;ratioP1;P1;durP2;ratioP2;P2;SDS_P1;SDS_P2;PMS_P1;PMS_P2;Temp;Humidity;BMP_temperature;BMP_pressure;BME280_temperature;BME280_humidity;BME280_pressure;Samples;Min_cycle;Max_cycle;Signal;HPM_P1;HPM_P2
2022/06/25 00:00:13;;;;;;;5.13;2.88;;;;;;;13.26;100.00;95898.88;2048320;29;20103;-62
2022/06/25 00:01:14;;;;;;;4.70;2.75;;;;;;;13.23;100.00;95896.41;2049029;28;20521;-62
2022/06/25 00:02:15;;;;;;;5.22;2.78;;;;;;;13.28;100.00;95894.41;2049047;29;20054;-62
2022/06/25 00:03:16;;;;;;;5.20;2.60;;;;;;;13.24;100.00;95898.09;2041412;29;20051;-62
2022/06/25 00:05:39;;;;;;;4.40;2.33;;;;;;;13.22;100.00;95903.41;2035823;29;20062;-61
2022/06/25 00:06:40;;;;;;;3.40;2.53;;;;;;;13.21;100.00;95903.50;2036200;28;20071;-62
2022/06/25 00:07:41;;;;;;;6.57;2.95;;;;;;;13.18;100.00;95896.69;2041155;29;20055;-62
2022/06/25 00:08:44;;;;;;;4.82;2.92;;;;;;;13.20;100.00;95899.19;2041223;29;20066;-62
2022/06/25 00:09:45;;;;;;;6.07;2.55;;;;;;;13.19;100.00;95902.75;2039890;29;20059;-62
2022/06/25 00:10:47;;;;;;;4.45;2.67;;;;;;;13.20;100.00;95909.63;2041824;28;20513;-61
2022/06/25 00:13:09;;;;;;;4.40;2.50;;;;;;;13.19;100.00;95903.59;2030792;29;20442;-62
2022/06/25 00:14:11;;;;;;;3.97;2.20;;;;;;;13.19;100.00;95900.13;2035497;29;20553;-61
2022/06/25 00:15:12;;;;;;;4.47;2.42;;;;;;;13.18;100.00;95901.91;2033445;29;20043;-63
2022/06/25 00:16:13;;;;;;;3.85;2.50;;;;;;;13.18;100.00;95898.47;2040912;29;20063;-62
2022/06/25 00:17:14;;;;;;;5.35;2.92;;;;;;;13.20;99.68;95904.41;2043835;28;20051;-62
2022/06/25 00:18:16;;;;;;;2.90;2.50;;;;;;;13.17;100.00;95896.78;2040794;29;20028;-62
2022/06/25 00:19:17;;;;;;;4.38;2.17;;;;;;;13.20;99.89;95901.81;2041487;29;20059;-62
2022/06/25 00:20:18;;;;;;;5.43;2.90;;;;;;;13.19;99.94;95900.13;2049115;29;20047;-63
2022/06/25 00:21:19;;;;;;;6.38;2.63;;;;;;;13.16;99.65;95895.94;2040971;29;20059;-60
2022/06/25 00:22:20;;;;;;;3.97;2.63;;;;;;;13.19;100.00;95900.13;2026120;29;20059;-61
2022/06/25 00:23:22;;;;;;;4.97;2.67;;;;;;;13.20;99.92;95901.81;2038893;28;20584;-62
2022/06/25 00:24:23;;;;;;;3.25;2.40;;;;;;;13.18;100.00;95901.91;2048730;29;20055;-63
2022/06/25 00:25:24;;;;;;;4.28;2.88;;;;;;;13.15;99.96;95912.53;2032459;29;20055;-64
2022/06/25 00:26:25;;;;;;;4.82;2.63;;;;;;;13.17;99.96;95905.44;2032342;29;20418;-63
2022/06/25 00:27:27;;;;;;;4.20;2.35;;;;;;;13.11;100.00;95894.53;2041492;28;20060;-61
2022/06/25 00:28:28;;;;;;;4.20;2.38;;;;;;;13.12;100.00;95904.84;2057017;28;20059;-60
2022/06/25 00:29:29;;;;;;;6.90;3.00;;;;;;;13.18;100.00;95904.53;2056538;28;20050;-63
2022/06/25 00:30:30;;;;;;;7.03;2.70;;;;;;;13.15;100.00;95909.06;2048586;29;20150;-63
2022/06/25 00:31:31;;;;;;;3.60;2.45;;;;;;;13.15;99.98;95901.22;2040985;29;20190;-63
2022/06/25 00:32:33;;;;;;;4.75;2.50;;;;;;;13.12;99.89;95912.69;2044357;29;20058;-63
2022/06/25 00:33:34;;;;;;;4.22;2.38;;;;;;;13.09;100.00;95909.44;2038582;29;20048;-63
2022/06/25 00:34:37;;;;;;;7.70;3.20;;;;;;;13.08;99.89;95907.75;2032761;29;20116;-63
2022/06/25 00:35:38;;;;;;;3.95;2.75;;;;;;;13.10;99.93;95908.50;2049164;29;20377;-62
2022/06/25 00:36:39;;;;;;;4.57;3.05;;;;;;;13.11;99.70;95897.97;2041586;29;20051;-63
2022/06/25 00:37:40;;;;;;;7.15;2.88;;;;;;;13.11;99.94;95897.97;2048601;29;20058;-62
2022/06/25 00:38:41;;;;;;;4.00;2.80;;;;;;;13.13;100.00;95905.72;2048476;28;20620;-63
2022/06/25 00:39:44;;;;;;;5.35;2.90;;;;;;;13.09;99.98;95899.84;2038968;29;20408;-63
2022/06/25 00:40:45;;;;;;;4.80;2.80;;;;;;;13.11;99.65;95911.00;2048717;28;20043;-62
2022/06/25 00:41:47;;;;;;;5.18;3.45;;;;;;;13.11;99.60;95904.97;2057401;28;20046;-62
2022/06/25 00:42:50;;;;;;;5.70;3.42;;;;;;;13.12;99.87;95911.84;2056243;28;20042;-62
2022/06/25 00:43:51;;;;;;;6.68;3.30;;;;;;;13.14;99.74;95912.59;2041547;29;20544;-62
2022/06/25 00:44:53;;;;;;;5.43;3.25;;;;;;;13.20;99.78;95909.63;2040908;28;20048;-62
2022/06/25 00:45:55;;;;;;;6.22;3.40;;;;;;;13.20;100.00;95907.03;2041133;29;20525;-63
2022/06/25 00:46:57;;;;;;;4.40;3.05;;;;;;;13.11;99.78;95907.56;2048226;28;20058;-63
2022/06/25 00:47:58;;;;;;;5.15;3.08;;;;;;;13.10;100.00;95911.94;2048200;29;20519;-63
2022/06/25 00:48:59;;;;;;;5.95;3.30;;;;;;;13.12;99.74;95904.84;2040095;29;20060;-63
2022/06/25 00:50:01;;;;;;;8.65;3.53;;;;;;;13.15;99.83;95916.88;2033172;29;20422;-62
2022/06/25 00:51:06;;;;;;;5.35;3.42;;;;;;;13.16;99.91;95900.31;2041100;28;20055;-63
2022/06/25 00:52:10;;;;;;;5.15;3.17;;;;;;;13.10;99.77;95911.13;2049383;28;20062;-61
2022/06/25 00:53:12;;;;;;;7.57;3.53;;;;;;;13.11;99.94;95912.78;2056362;28;20054;-62
2022/06/25 00:54:13;;;;;;;5.57;3.05;;;;;;;13.10;99.52;95908.50;2056373;28;20061;-61
2022/06/25 00:55:14;;;;;;;4.78;3.35;;;;;;;13.06;99.85;95910.44;2040684;29;20525;-62
2022/06/25 00:56:15;;;;;;;8.10;3.78;;;;;;;13.05;99.64;95915.75;2024540;29;20064;-63
2022/06/25 00:57:20;;;;;;;5.18;3.50;;;;;;;13.05;100.00;95905.34;2033063;28;20075;-62
2022/06/25 00:58:21;;;;;;;4.45;3.58;;;;;;;13.08;100.00;95911.19;2056843;28;20057;-62
2022/06/25 00:59:24;;;;;;;5.72;3.53;;;;;;;13.08;99.72;95907.75;2048445;29;20051;-63
2022/06/25 01:00:25;;;;;;;4.70;3.50;;;;;;;13.08;100.00;95907.75;2025484;29;20061;-62
2022/06/25 01:01:30;;;;;;;6.28;3.58;;;;;;;13.07;99.71;95908.66;2033826;29;20055;-61
2022/06/25 01:02:31;;;;;;;4.53;3.30;;;;;;;13.08;99.87;95908.59;2041329;28;20048;-61
2022/06/25 01:03:33;;;;;;;4.85;2.78;;;;;;;13.08;99.92;95907.75;2039865;29;20560;-61
2022/06/25 01:04:36;;;;;;;8.68;3.85;;;;;;;13.09;99.93;95909.44;2043332;29;20525;-63
2022/06/25 01:05:38;;;;;;;4.35;3.38;;;;;;;13.09;99.98;95909.44;2039775;29;20055;-58
2022/06/25 01:06:39;;;;;;;4.68;3.63;;;;;;;13.11;100.00;95905.81;2033305;29;20043;-59
2022/06/25 01:07:42;;;;;;;4.15;3.30;;;;;;;13.10;99.92;95911.13;2025330;29;20041;-63
2022/06/25 01:08:44;;;;;;;8.15;4.00;;;;;;;13.09;100.00;95909.44;2033195;28;20048;-61
2022/06/25 01:09:46;;;;;;;6.40;3.80;;;;;;;13.09;100.00;95914.63;2056811;28;20046;-61
2022/06/25 01:10:48;;;;;;;5.43;3.20;;;;;;;13.08;99.90;95913.81;2032787;29;20059;-61
2022/06/25 01:11:49;;;;;;;6.57;3.80;;;;;;;13.11;100.00;95912.78;2030115;28;20056;-60
2022/06/25 01:12:51;;;;;;;6.13;3.53;;;;;;;13.10;100.00;95906.75;2056570;28;20047;-61
2022/06/25 01:13:53;;;;;;;5.50;2.85;;;;;;;13.10;99.78;95914.56;2056132;28;20050;-61
2022/06/25 01:15:03;;;;;;;3.67;2.65;;;;;;;13.09;100.00;95910.25;2056719;28;20042;-64
2022/06/25 01:16:05;;;;;;;5.53;3.10;;;;;;;13.07;99.82;95906.06;2048282;29;20043;-62
2022/06/25 01:17:07;;;;;;;10.38;3.40;;;;;;;13.08;99.91;95912.97;2033600;29;20048;-61
2022/06/25 01:18:09;;;;;;;6.22;2.88;;;;;;;13.08;100.00;95915.56;2033159;29;20055;-62
2022/06/25 01:19:11;;;;;;;6.03;3.08;;;;;;;13.06;99.81;95905.22;2041027;29;20474;-62
2022/06/25 01:20:14;;;;;;;4.63;3.15;;;;;;;13.05;99.79;95910.56;2040589;29;20066;-61
2022/06/25 01:21:16;;;;;;;3.65;2.45;;;;;;;13.04;99.76;95917.50;2048830;28;20054;-62
2022/06/25 01:22:18;;;;;;;6.63;2.55;;;;;;;13.05;99.55;95913.16;2040507;29;20048;-63
2022/06/25 01:23:19;;;;;;;4.25;2.50;;;;;;;13.07;99.66;95916.50;2025192;29;20128;-64
2022/06/25 01:24:21;;;;;;;3.83;2.20;;;;;;;13.07;99.24;95914.75;2017658;29;20416;-63
2022/06/25 01:25:22;;;;;;;5.25;2.72;;;;;;;13.07;99.41;95916.50;2032897;29;20058;-63
2022/06/25 01:26:23;;;;;;;5.18;2.40;;;;;;;13.04;99.46;95914.91;2047728;29;20062;-62
2022/06/25 01:27:24;;;;;;;5.35;2.28;;;;;;;13.05;99.41;95914.00;2040574;29;20046;-63
2022/06/25 01:28:26;;;;;;;5.22;2.60;;;;;;;13.11;99.53;95910.19;2048157;28;20565;-62
2022/06/25 01:29:28;;;;;;;6.50;2.75;;;;;;;13.09;99.47;95914.63;2047886;28;20050;-62
2022/06/25 01:30:29;;;;;;;5.40;2.70;;;;;;;13.07;99.48;95912.13;2048232;29;20051;-62
2022/06/25 01:31:31;;;;;;;4.60;2.33;;;;;;;13.05;99.75;95919.19;2048203;29;20433;-62
2022/06/25 01:32:32;;;;;;;4.13;2.13;;;;;;;13.05;99.60;95915.75;2037140;28;20562;-62
2022/06/25 01:33:58;;;;;;;5.32;2.20;;;;;;;13.05;99.68;95913.16;2043009;28;20114;-64
2022/06/25 01:34:59;;;;;;;17.50;2.92;;;;;;;13.07;99.56;95919.09;2042611;28;20051;-56
2022/06/25 01:36:01;;;;;;;4.28;2.50;;;;;;;13.10;99.43;95911.13;2047593;29;20429;-56
2022/06/25 01:37:02;;;;;;;3.70;2.15;;;;;;;13.08;99.40;95912.97;2040542;29;20047;-56
2022/06/25 01:38:04;;;;;;;3.83;2.20;;;;;;;13.08;99.54;95918.19;2047861;28;20062;-57
2022/06/25 01:39:05;;;;;;;5.88;2.38;;;;;;;13.06;99.20;95914.81;2056675;28;20536;-57
2022/06/25 01:40:07;;;;;;;3.55;2.10;;;;;;;13.03;99.44;95914.06;2055783;28;20059;-57
2022/06/25 01:41:08;;;;;;;5.35;2.20;;;;;;;13.05;99.45;95910.56;2056803;28;20062;-57
2022/06/25 01:42:58;;;;;;;4.50;2.17;;;;;;;13.00;99.24;95909.03;2048444;29;20058;-56
2022/06/25 01:43:31;;;;;;;4.95;2.30;;;;;;;13.01;99.02;95912.47;2049052;28;20051;-56
2022/06/25 01:44:35;;;;;;;2.97;1.95;;;;;;;13.01;98.84;95915.09;2059291;28;20047;-56
2022/06/25 01:45:37;;;;;;;2.97;1.98;;;;;;;13.00;98.78;95914.25;2048515;28;20051;-56
2022/06/25 01:46:38;;;;;;;4.13;2.10;;;;;;;12.99;99.01;95909.97;2048375;28;20055;-55
2022/06/25 01:47:40;;;;;;;3.67;2.30;;;;;;;13.00;99.06;95916.03;2064458;28;20046;-56
2022/06/25 01:48:42;;;;;;;2.75;1.73;;;;;;;12.96;99.11;95915.38;2056005;28;20068;-56
2022/06/25 01:49:44;;;;;;;3.30;1.90;;;;;;;12.98;98.97;95910.88;2049109;28;20047;-56
2022/06/25 01:50:45;;;;;;;4.57;1.80;;;;;;;13.01;98.86;95918.53;2056683;28;20051;-56
2022/06/25 01:51:48;;;;;;;4.60;1.60;;;;;;;13.01;99.02;95918.53;2056346;28;20046;-57
2022/06/25 01:52:49;;;;;;;2.92;2.03;;;;;;;12.99;99.13;95916.94;2064117;28;20097;-56
2022/06/25 01:53:51;;;;;;;5.82;2.00;;;;;;;13.00;98.96;95916.84;2063531;28;20055;-56
2022/06/25 01:54:52;;;;;;;5.13;2.05;;;;;;;12.98;99.36;95923.91;2056444;28;20046;-56
2022/06/25 01:55:54;;;;;;;4.38;2.05;;;;;;;12.97;99.54;95922.25;2056759;28;20627;-56
2022/06/25 01:56:55;;;;;;;5.35;2.50;;;;;;;13.00;99.34;95922.06;2056091;28;20055;-57
2022/06/25 01:57:56;;;;;;;6.60;2.03;;;;;;;13.03;99.33;95926.25;2048080;29;20469;-56
2022/06/25 01:58:58;;;;;;;3.30;1.80;;;;;;;12.99;99.63;95922.16;2056503;28;20526;-57
2022/06/25 02:00:00;;;;;;;3.30;2.00;;;;;;;13.03;99.47;95923.66;2055984;28;20437;-56
2022/06/25 02:01:03;;;;;;;5.53;2.20;;;;;;;13.00;99.55;95923.84;2055831;28;20050;-57
2022/06/25 02:02:05;;;;;;;5.43;2.05;;;;;;;13.00;99.60;95922.06;2048041;28;20537;-56
2022/06/25 02:03:06;;;;;;;3.67;1.80;;;;;;;12.98;99.44;95923.09;2056087;28;20600;-57
2022/06/25 02:04:07;;;;;;;5.47;2.00;;;;;;;13.00;99.56;95918.63;2056285;28;20062;-56
2022/06/25 02:05:12;;;;;;;4.00;2.20;;;;;;;13.05;99.45;95918.38;2048833;28;20054;-56
2022/06/25 02:07:15;;;;;;;8.88;1.60;;;;;;;12.95;99.12;95921.50;2055069;28;20542;-56
2022/06/25 02:08:17;;;;;;;7.47;2.25;;;;;;;12.95;99.27;95916.28;2063745;28;20069;-56
2022/06/25 02:09:19;;;;;;;2.53;1.48;;;;;;;12.95;99.16;95926.72;2063588;28;20566;-56
2022/06/25 02:10:21;;;;;;;3.30;1.58;;;;;;;12.98;99.08;95928.28;2047686;29;20046;-57
2022/06/25 02:11:24;;;;;;;5.15;2.00;;;;;;;12.95;98.62;95923.25;2034266;29;20047;-57
2022/06/25 02:12:25;;;;;;;4.25;1.90;;;;;;;12.97;99.00;95924.84;2056521;28;20058;-56
2022/06/25 02:13:27;;;;;;;2.55;1.73;;;;;;;12.96;99.38;95923.19;2056077;28;20555;-54
2022/06/25 02:14:28;;;;;;;6.68;2.00;;;;;;;12.93;98.98;95933.75;2057212;28;20047;-56
2022/06/25 02:15:32;;;;;;;4.68;1.42;;;;;;;12.94;98.94;95927.66;2048850;28;20054;-56
2022/06/25 02:16:34;;;;;;;4.13;1.70;;;;;;;12.94;98.63;95927.66;2051615;28;20043;-56
2022/06/25 02:17:38;;;;;;;2.90;1.58;;;;;;;12.92;99.12;95929.50;2063621;28;20050;-56
2022/06/25 02:18:40;;;;;;;3.95;1.70;;;;;;;12.95;98.70;95925.88;2055695;28;20039;-56
2022/06/25 02:19:41;;;;;;;3.35;1.63;;;;;;;12.94;98.88;95930.25;2047818;28;20047;-57
2022/06/25 02:20:42;;;;;;;2.58;1.55;;;;;;;12.91;98.83;95925.22;2055978;28;20050;-57
2022/06/25 02:21:43;;;;;;;4.88;1.67;;;;;;;12.92;98.93;95932.09;2056092;28;20046;-57
2022/06/25 02:22:45;;;;;;;2.78;1.55;;;;;;;12.91;99.11;95924.34;2047860;29;20058;-56
2022/06/25 02:23:46;;;;;;;7.32;2.40;;;;;;;12.92;98.83;95926.06;2050773;28;20049;-56
2022/06/25 02:24:47;;;;;;;4.43;1.52;;;;;;;12.91;99.39;95930.44;2048593;28;20050;-56
2022/06/25 02:25:48;;;;;;;4.93;1.33;;;;;;;12.96;99.24;95925.78;2039255;29;20044;-56
2022/06/25 02:26:50;;;;;;;6.50;1.60;;;;;;;12.98;98.94;95934.34;2048122;28;20052;-57
2022/06/25 02:27:51;;;;;;;3.03;1.20;;;;;;;12.96;98.99;95935.34;2048281;29;20509;-56
2022/06/25 02:28:52;;;;;;;3.97;1.35;;;;;;;12.94;99.01;95930.25;2048398;28;20041;-56
2022/06/25 02:29:54;;;;;;;3.65;1.33;;;;;;;12.90;98.47;95936.56;2048340;29;20043;-57
2022/06/25 02:30:55;;;;;;;2.20;1.45;;;;;;;12.90;98.57;95933.94;2042859;28;20054;-56
2022/06/25 02:31:56;;;;;;;3.15;1.55;;;;;;;12.85;98.37;95930.75;2055680;28;20058;-56
2022/06/25 02:32:57;;;;;;;2.83;1.38;;;;;;;12.84;98.28;95926.50;2063522;28;20061;-57
2022/06/25 02:33:58;;;;;;;5.20;1.67;;;;;;;12.89;98.53;95940.09;2055274;28;20062;-57
2022/06/25 02:35:00;;;;;;;6.40;1.60;;;;;;;12.89;98.20;95934.06;2048669;28;20058;-55
2022/06/25 02:36:02;;;;;;;2.95;1.20;;;;;;;12.88;98.28;95937.56;2055755;28;20047;-57
2022/06/25 02:37:04;;;;;;;4.05;1.27;;;;;;;12.86;98.64;95935.06;2055978;28;20042;-56
2022/06/25 02:38:05;;;;;;;6.72;1.65;;;;;;;12.88;98.24;95932.34;2056565;28;20085;-57
2022/06/25 02:39:06;;;;;;;2.60;1.33;;;;;;;12.85;98.23;95937.75;2055914;28;20053;-56
2022/06/25 02:40:08;;;;;;;2.20;1.13;;;;;;;12.84;98.33;95934.31;2047556;28;20058;-57
2022/06/25 02:41:13;;;;;;;4.57;1.70;;;;;;;12.85;98.50;95935.13;2051243;28;20042;-56
2022/06/25 02:42:14;;;;;;;3.10;1.33;;;;;;;12.83;98.78;95935.25;2048121;28;20421;-56
2022/06/25 02:43:17;;;;;;;2.67;1.20;;;;;;;12.87;98.27;95931.53;2047768;29;20059;-57
2022/06/25 02:44:24;;;;;;;2.15;1.20;;;;;;;12.89;98.47;95936.66;2048968;28;20405;-56
2022/06/25 02:45:29;;;;;;;2.58;1.00;;;;;;;12.86;98.46;95940.28;2055684;28;20054;-56
2022/06/25 02:46:31;;;;;;;8.00;1.20;;;;;;;12.84;98.52;95938.69;2047683;28;20055;-57
2022/06/25 02:47:32;;;;;;;2.58;0.95;;;;;;;12.82;98.29;95940.53;2063207;28;20049;-56
2022/06/25 02:48:40;;;;;;;1.83;1.10;;;;;;;12.78;98.72;95935.50;2048198;28;20448;-56
2022/06/25 02:49:42;;;;;;;3.38;1.23;;;;;;;12.79;98.29;95941.53;2041918;28;20052;-56
2022/06/25 02:50:44;;;;;;;5.03;1.40;;;;;;;12.82;98.42;95932.72;2047877;28;20058;-56
2022/06/25 02:51:47;;;;;;;3.88;1.63;;;;;;;12.86;98.21;95945.50;2048832;28;20047;-56
2022/06/25 02:52:49;;;;;;;4.00;1.23;;;;;;;12.82;98.39;95937.94;2047529;28;20051;-56
2022/06/25 02:53:52;;;;;;;3.40;1.40;;;;;;;12.77;98.20;95939.00;2048289;28;20047;-56
2022/06/25 02:54:55;;;;;;;3.20;1.40;;;;;;;12.76;98.25;95939.94;2055590;28;20047;-56
2022/06/25 03:00:00;;;;;;;8.20;1.08;;;;;;;12.83;97.74;95943.06;2055855;28;20162;-57
2022/06/25 03:01:02;;;;;;;6.30;1.50;;;;;;;12.78;97.80;95943.31;2048184;28;20055;-56
2022/06/25 03:02:04;;;;;;;5.07;1.20;;;;;;;12.77;97.72;95948.59;2047440;28;20054;-56
2022/06/25 03:03:08;;;;;;;3.92;1.15;;;;;;;12.72;98.29;95942.81;2047647;28;20481;-56
2022/06/25 03:04:11;;;;;;;3.67;1.38;;;;;;;12.71;98.10;95941.13;2054277;28;20590;-57
2022/06/25 03:05:12;;;;;;;2.72;1.40;;;;;;;12.72;97.81;95945.41;2047874;29;20059;-56
2022/06/25 03:06:15;;;;;;;1.90;1.40;;;;;;;12.76;98.07;95947.78;2048561;28;20107;-56
2022/06/25 03:07:17;;;;;;;3.90;1.20;;;;;;;12.72;98.49;95945.41;2055347;28;20138;-56
2022/06/25 03:08:18;;;;;;;4.88;1.42;;;;;;;12.68;98.32;95942.16;2056302;28;20070;-56
2022/06/25 03:09:20;;;;;;;7.82;1.27;;;;;;;12.70;98.59;95944.69;2063783;28;20049;-56
2022/06/25 03:10:21;;;;;;;3.92;1.25;;;;;;;12.69;98.13;95948.19;2047796;28;20063;-57
2022/06/25 03:11:24;;;;;;;3.85;1.40;;;;;;;12.69;98.64;95943.00;2048153;28;20036;-57
2022/06/25 03:12:25;;;;;;;3.63;1.60;;;;;;;12.69;98.80;95954.25;2063581;28;20050;-57
2022/06/25 03:13:37;;;;;;;1.45;1.00;;;;;;;12.66;98.42;95944.00;2056155;28;20054;-55
2022/06/25 03:14:39;;;;;;;6.65;1.95;;;;;;;12.65;98.41;95942.31;2049815;28;20043;-57
2022/06/25 03:15:40;;;;;;;2.67;1.20;;;;;;;12.68;98.62;95947.38;2047895;28;20559;-56
2022/06/25 03:16:42;;;;;;;3.05;1.30;;;;;;;12.67;98.51;95952.66;2040334;29;20050;-56
2022/06/25 03:17:46;;;;;;;3.15;1.20;;;;;;;12.69;98.78;95948.19;2048146;28;20046;-57
2022/06/25 03:19:07;;;;;;;4.93;1.40;;;;;;;12.71;98.17;95954.16;2059170;28;20057;-56
2022/06/25 03:20:11;;;;;;;4.95;1.75;;;;;;;12.68;98.60;95956.94;2055106;28;20139;-57
2022/06/25 03:21:21;;;;;;;2.63;1.20;;;;;;;12.69;98.60;95958.63;2057377;28;20057;-57
2022/06/25 03:22:30;;;;;;;3.90;1.38;;;;;;;12.69;98.81;95951.63;2055842;28;20055;-56
2022/06/25 03:23:32;;;;;;;4.50;1.33;;;;;;;12.64;98.46;95955.44;2057251;28;20039;-56
2022/06/25 03:24:33;;;;;;;5.60;1.67;;;;;;;12.66;98.50;95954.41;2047523;29;20084;-55
2022/06/25 03:25:34;;;;;;;3.58;1.40;;;;;;;12.65;98.14;95955.34;2048106;28;20043;-57
2022/06/25 03:26:39;;;;;;;3.13;1.38;;;;;;;12.68;98.74;95954.34;2047675;29;20058;-56
2022/06/25 03:27:40;;;;;;;2.38;1.50;;;;;;;12.67;98.25;95948.31;2047506;28;20043;-57
2022/06/25 03:28:47;;;;;;;3.17;1.17;;;;;;;12.69;98.62;95953.41;2053184;28;20050;-57
2022/06/25 03:29:49;;;;;;;3.72;1.50;;;;;;;12.68;98.15;95956.94;2047215;29;20053;-57
2022/06/25 03:30:52;;;;;;;3.72;1.48;;;;;;;12.66;97.96;95957.03;2048437;28;20039;-56
2022/06/25 03:31:53;;;;;;;2.30;1.25;;;;;;;12.67;97.77;95955.25;2047886;29;20114;-56
2022/06/25 03:33:14;;;;;;;3.67;1.52;;;;;;;12.70;97.24;95955.09;2050270;28;20062;-56
2022/06/25 03:34:16;;;;;;;2.17;1.33;;;;;;;12.69;97.59;95956.00;2058861;28;20038;-57
2022/06/25 03:35:17;;;;;;;1.88;1.20;;;;;;;12.70;97.92;95952.50;2055625;28;20054;-57
2022/06/25 03:36:32;;;;;;;4.30;1.10;;;;;;;12.67;98.26;95958.72;2054601;28;20046;-57
2022/06/25 03:37:33;;;;;;;4.82;1.38;;;;;;;12.72;98.32;95955.84;2061656;28;20038;-56
2022/06/25 03:38:35;;;;;;;4.40;1.30;;;;;;;12.73;98.63;95954.94;2048015;28;20054;-56
2022/06/25 03:39:36;;;;;;;7.03;1.60;;;;;;;12.75;98.61;95955.66;2056450;28;20050;-56
2022/06/25 03:40:38;;;;;;;6.22;1.60;;;;;;;12.72;98.58;95964.50;2055033;28;20047;-56
2022/06/25 03:43:03;;;;;;;5.32;1.30;;;;;;;12.69;98.97;95962.06;2055193;28;20051;-56
2022/06/25 03:44:10;;;;;;;7.50;1.30;;;;;;;12.68;98.82;95955.19;2056185;28;20058;-57
2022/06/25 03:45:12;;;;;;;5.00;1.75;;;;;;;12.71;98.62;95960.22;2055692;28;20051;-56
2022/06/25 03:46:13;;;;;;;3.42;1.17;;;;;;;12.70;98.22;95957.72;2063509;28;20050;-55
2022/06/25 03:47:15;;;;;;;3.58;1.38;;;;;;;12.70;98.28;95961.16;2047624;29;20074;-57
2022/06/25 03:48:16;;;;;;;5.32;1.30;;;;;;;12.69;97.84;95963.81;2039815;29;20549;-55
2022/06/25 03:49:37;;;;;;;2.50;1.50;;;;;;;12.70;98.10;95958.53;2042895;29;20054;-57
2022/06/25 03:50:43;;;;;;;4.15;1.50;;;;;;;12.72;98.25;95968.88;2052169;28;20695;-56
2022/06/25 03:51:45;;;;;;;3.42;1.25;;;;;;;12.69;98.30;95969.03;2063853;28;20050;-56
2022/06/25 03:52:46;;;;;;;3.45;1.20;;;;;;;12.71;98.11;95967.19;2055753;28;20055;-56
2022/06/25 03:53:48;;;;;;;4.15;1.50;;;;;;;12.71;97.75;95972.41;2054747;28;20093;-57
2022/06/25 03:54:49;;;;;;;3.97;1.70;;;;;;;12.71;98.29;95973.25;2055700;28;20054;-56
2022/06/25 03:55:50;;;;;;;6.10;1.70;;;;;;;12.69;97.75;95969.03;2056180;28;20046;-56
2022/06/25 03:56:52;;;;;;;3.80;1.65;;;;;;;12.67;97.83;95968.28;2055667;28;20058;-56
2022/06/25 03:57:54;;;;;;;6.25;1.50;;;;;;;12.69;98.18;95971.66;2047382;29;20043;-56
2022/06/25 03:58:59;;;;;;;3.15;1.40;;;;;;;12.70;98.41;95975.94;2041665;28;20051;-57
2022/06/25 04:00:03;;;;;;;4.28;1.25;;;;;;;12.68;97.80;95970.81;2056215;28;20054;-56
2022/06/25 04:01:13;;;;;;;2.05;1.48;;;;;;;12.67;97.76;95974.34;2063544;28;20050;-56
2022/06/25 04:02:16;;;;;;;4.03;1.60;;;;;;;12.68;97.71;95977.78;2065056;28;20049;-57
2022/06/25 04:03:37;;;;;;;3.45;1.77;;;;;;;12.61;97.73;95972.06;2061963;28;20539;-55
2022/06/25 04:04:44;;;;;;;3.15;1.42;;;;;;;12.63;98.42;95972.81;2065863;28;20093;-57
2022/06/25 04:05:46;;;;;;;3.58;1.70;;;;;;;12.69;98.09;95975.09;2049179;29;20545;-56
2022/06/25 04:07:01;;;;;;;3.35;1.55;;;;;;;12.67;98.51;95978.69;2048968;28;20410;-57
2022/06/25 04:08:03;;;;;;;8.20;1.98;;;;;;;12.63;98.46;95975.44;2056078;28;20440;-57
2022/06/25 04:09:04;;;;;;;4.50;1.50;;;;;;;12.65;98.34;95980.56;2065081;28;20424;-57
2022/06/25 04:10:07;;;;;;;3.08;1.60;;;;;;;12.65;98.21;95986.63;2056734;28;20046;-56
2022/06/25 04:11:08;;;;;;;3.58;1.42;;;;;;;12.63;97.82;95987.63;2042843;28;20055;-57
2022/06/25 04:12:16;;;;;;;4.30;1.83;;;;;;;12.62;98.03;95984.19;2041935;29;20066;-56
2022/06/25 04:13:17;;;;;;;2.25;1.52;;;;;;;12.62;97.57;95984.19;2040913;29;20048;-57
2022/06/25 04:14:18;;;;;;;6.03;1.75;;;;;;;12.66;97.85;95990.06;2041160;29;20064;-57
2022/06/25 04:15:19;;;;;;;3.83;1.60;;;;;;;12.65;97.45;95988.38;2048894;28;20050;-57
2022/06/25 04:16:22;;;;;;;2.88;1.40;;;;;;;12.60;97.66;95990.41;2049587;28;20055;-57
2022/06/25 04:17:24;;;;;;;5.10;1.95;;;;;;;12.60;98.13;95987.81;2056705;28;20042;-57
2022/06/25 04:18:25;;;;;;;2.38;1.42;;;;;;;12.61;97.93;95989.47;2056697;28;20551;-57
2022/06/25 04:19:26;;;;;;;4.55;1.65;;;;;;;12.60;98.06;95995.63;2056725;28;20046;-57
2022/06/25 04:20:28;;;;;;;4.55;1.50;;;;;;;12.60;98.51;95990.41;2057305;28;20055;-57
2022/06/25 04:21:29;;;;;;;6.57;1.90;;;;;;;12.58;98.53;95987.88;2049458;29;20058;-57
2022/06/25 04:22:31;;;;;;;4.45;1.60;;;;;;;12.54;98.76;95987.22;2049313;28;20146;-57
2022/06/25 04:23:32;;;;;;;7.38;2.10;;;;;;;12.56;98.59;95990.59;2048599;28;20062;-57
2022/06/25 04:24:38;;;;;;;2.10;1.48;;;;;;;12.56;98.52;95993.19;2045041;28;20058;-57
2022/06/25 04:25:39;;;;;;;3.88;1.73;;;;;;;12.55;98.61;95983.66;2057264;28;20058;-57
2022/06/25 04:26:42;;;;;;;4.45;1.70;;;;;;;12.52;98.82;95983.00;2049084;29;20043;-57
2022/06/25 04:29:08;;;;;;;3.92;1.90;;;;;;;12.50;99.00;95988.28;2064956;28;20069;-57
2022/06/25 04:30:15;;;;;;;4.85;2.00;;;;;;;12.54;98.65;95989.81;2049643;28;20110;-57
2022/06/25 04:31:20;;;;;;;4.38;1.88;;;;;;;12.54;99.07;95986.38;2050370;28;20050;-57
2022/06/25 04:32:22;;;;;;;3.50;1.70;;;;;;;12.54;98.82;95992.41;2055805;28;20031;-57
2022/06/25 04:33:35;;;;;;;3.88;1.70;;;;;;;12.57;98.89;95997.47;2064203;28;20050;-56
2022/06/25 04:34:40;;;;;;;4.68;1.83;;;;;;;12.53;98.74;95997.69;2057634;28;20047;-57
2022/06/25 04:35:42;;;;;;;5.15;1.80;;;;;;;12.51;98.43;95997.81;2064430;28;20435;-56
2022/06/25 04:37:01;;;;;;;5.57;2.00;;;;;;;12.52;98.87;95996.88;2062011;28;20065;-57
2022/06/25 04:38:02;;;;;;;3.63;1.80;;;;;;;12.50;98.85;95998.72;2059695;28;20063;-56
2022/06/25 04:39:04;;;;;;;6.07;2.33;;;;;;;12.50;98.70;95993.50;2056921;28;20053;-57
2022/06/25 04:40:07;;;;;;;4.53;1.80;;;;;;;12.47;98.90;95991.06;2057280;28;20540;-57
2022/06/25 04:41:09;;;;;;;3.90;2.00;;;;;;;12.47;98.53;95996.28;2048979;28;20062;-56
2022/06/25 04:42:10;;;;;;;2.92;2.00;;;;;;;12.49;98.53;95994.44;2036291;29;20051;-56
2022/06/25 04:43:11;;;;;;;4.22;2.05;;;;;;;12.49;98.45;95993.59;2025605;29;20127;-56
2022/06/25 04:44:15;;;;;;;4.85;2.03;;;;;;;12.50;98.29;95997.88;2041494;29;20059;-56
2022/06/25 04:45:16;;;;;;;6.15;2.10;;;;;;;12.50;98.87;95995.28;2049164;28;20047;-57
2022/06/25 04:46:37;;;;;;;4.30;2.15;;;;;;;12.52;98.37;95994.25;2049467;28;20051;-54
2022/06/25 04:47:38;;;;;;;5.32;2.30;;;;;;;12.52;98.67;95996.88;2056239;28;20057;-56
2022/06/25 04:48:59;;;;;;;3.78;2.20;;;;;;;12.50;98.54;96001.31;2050671;28;20043;-57
2022/06/25 04:50:01;;;;;;;5.18;2.05;;;;;;;12.52;98.65;96003.84;2059631;28;20503;-56
2022/06/25 04:51:03;;;;;;;7.43;2.80;;;;;;;12.52;98.62;95996.88;2057144;28;20055;-57
2022/06/25 04:52:05;;;;;;;3.67;2.13;;;;;;;12.53;98.55;96000.31;2056851;28;20065;-56
2022/06/25 04:53:06;;;;;;;12.35;2.70;;;;;;;12.52;99.17;96002.06;2049226;29;20047;-57
2022/06/25 04:54:08;;;;;;;7.75;2.20;;;;;;;12.54;99.00;96000.25;2048951;29;20051;-57
2022/06/25 04:55:12;;;;;;;3.25;2.20;;;;;;;12.54;99.21;95997.63;2048904;28;20051;-57
2022/06/25 04:56:14;;;;;;;8.32;2.50;;;;;;;12.52;99.06;96004.69;2048588;28;20556;-57
2022/06/25 04:57:16;;;;;;;3.45;2.05;;;;;;;12.51;98.43;96003.00;2049036;28;20051;-56
2022/06/25 04:58:37;;;;;;;5.15;2.35;;;;;;;12.52;98.71;96004.69;2051254;28;20050;-56
2022/06/25 04:59:57;;;;;;;6.43;2.40;;;;;;;12.54;98.64;96009.81;2048311;29;20043;-57
2022/06/25 05:00:59;;;;;;;3.00;2.03;;;;;;;12.56;98.68;96014.03;2041224;29;20059;-56
2022/06/25 05:02:01;;;;;;;6.35;2.38;;;;;;;12.57;98.53;96009.66;2033617;29;20136;-57
2022/06/25 05:03:11;;;;;;;5.05;2.30;;;;;;;12.60;98.99;96006.88;2056898;28;20038;-57
2022/06/25 05:04:21;;;;;;;4.13;2.60;;;;;;;12.60;98.33;96004.25;2056849;28;20055;-58
2022/06/25 05:05:23;;;;;;;3.58;2.53;;;;;;;12.65;98.33;96014.44;2056987;28;20039;-57
2022/06/25 05:06:25;;;;;;;7.43;2.83;;;;;;;12.66;98.09;96006.53;2054499;28;20055;-56